サー・シウサガル・ラングラーム国際空港の過去48時間の天気

サー・シウサガル・ラングラーム国際空港 (Plaisance Mauritius )

現在時刻: 1/18 14:27 +04 (1/18 10:27 UTC) 以下の時間は現地時間です。

過去48時間のMETAR気象情報
時間 風向 風速(m/s) 視程 気温(℃) 湿度(%) 気圧(hPa) 天気現象
18 14:00 東北東 6 10km以上 30 75 1011
18 13:00 東北東 6 10km以上 31 70 1011
18 12:00 東北東 6 10km以上 30 70 1012
18 11:00 6 10km以上 30 75 1012
18 10:00 東北東 5 10km以上 29 79 1013
18 09:00 東北東 4 10km以上 29 79 1013
18 08:00 東北東 3 10km以上 29 79 1013
18 07:00 東北東 2 10km以上 27 89 1012
18 06:00 北東 2 10km以上 26 89 1012 周辺でしゅう雨
18 05:00 北東 3 10km以上 26 84 1012 周辺でしゅう雨
18 04:00 北東 4 10km以上 27 79 1012
18 03:00 北東 5 10km以上 27 84 1011
18 02:00 東北東 3 10km以上 26 89 1011
18 01:00 東北東 4 10km以上 27 84 1012
18 00:00 東北東 4 10km以上 26 89 1013
FIMP 181000Z 07012KT 9999 SCT018 SCT100 30/25 Q1011
FIMP 180900Z 06011KT 9999 SCT018 SCT100 31/25 Q1011
FIMP 180800Z 06011KT 9999 SCT018 SCT100 30/24 Q1012
FIMP 180700Z 09012KT 9999 SCT018 SCT050 30/25 Q1012
FIMP 180600Z 07009KT 9999 SCT017 BKN050 29/25 Q1013
FIMP 180500Z 06008KT 9999 SCT017 BKN050 29/25 Q1013
FIMP 180400Z 06006KT 9999 FEW017 SCT050 29/25 Q1013
FIMP 180300Z 07004KT 9999 BKN016 27/25 Q1012
FIMP 180200Z 04003KT 9999 VCSH SCT015 26/24 Q1012
FIMP 180100Z 05005KT 9999 VCSH BKN015 26/23 Q1012
FIMP 180000Z 04007KT 9999 SCT017 27/23 Q1012
FIMP 172300Z 05010KT 9999 SCT017 SCT250 27/24 Q1011
FIMP 172200Z 07006KT 9999 SCT016 OVC250 26/24 Q1011
FIMP 172100Z 06008KT 9999 SCT016 OVC250 27/24 Q1012
FIMP 172000Z 06008KT 9999 FEW017 OVC250 26/24 Q1013